Time;durP1;ratioP1;P1;durP2;ratioP2;P2;SDS_P1;SDS_P2;PMS_P1;PMS_P2;Temp;Humidity;BMP_temperature;BMP_pressure;BME280_temperature;BME280_humidity;BME280_pressure;Samples;Min_cycle;Max_cycle;Signal;HPM_P1;HPM_P2
2020/12/13 00:02:20;;;;;;;77.87;44.23;;;;;;;-0.48;93.61;99056.13;1688493;83;25679;-67
2020/12/13 00:04:47;;;;;;;78.90;45.63;;;;;;;-0.46;93.75;99059.02;1720974;82;25370;-67
2020/12/13 00:07:14;;;;;;;82.00;48.10;;;;;;;-0.41;93.71;99065.30;1721044;83;25302;-68
2020/12/13 00:09:41;;;;;;;73.87;42.27;;;;;;;-0.36;93.69;99062.53;1721184;82;25334;-69
2020/12/13 00:12:07;;;;;;;64.77;37.17;;;;;;;-0.31;93.89;99064.46;1720995;83;25303;-66
2020/12/13 00:14:34;;;;;;;81.83;45.90;;;;;;;-0.29;93.86;99065.23;1720992;83;25634;-66
2020/12/13 00:17:01;;;;;;;68.77;40.87;;;;;;;-0.28;93.94;99064.34;1720992;82;25662;-70
2020/12/13 00:19:28;;;;;;;73.17;41.73;;;;;;;-0.27;94.02;99064.28;1721026;82;25313;-68
2020/12/13 00:21:56;;;;;;;82.13;48.83;;;;;;;-0.23;94.19;99064.98;1721002;82;25652;-67
2020/12/13 00:24:23;;;;;;;80.13;46.23;;;;;;;-0.18;94.28;99065.63;1721072;82;25316;-67
2020/12/13 00:26:49;;;;;;;82.07;47.40;;;;;;;-0.13;94.28;99070.61;1720938;83;25642;-68
2020/12/13 00:29:16;;;;;;;76.63;44.30;;;;;;;-0.12;94.19;99065.80;1721095;83;25729;-67
2020/12/13 00:31:43;;;;;;;72.47;42.43;;;;;;;-0.09;94.25;99069.09;1720943;82;25299;-68
2020/12/13 00:34:10;;;;;;;80.93;46.40;;;;;;;-0.07;94.30;99071.61;1721130;83;25331;-68
2020/12/13 00:36:36;;;;;;;78.37;45.13;;;;;;;-0.07;94.21;99078.08;1720992;82;26017;-69
2020/12/13 00:39:03;;;;;;;75.40;42.60;;;;;;;-0.08;94.27;99077.25;1720970;82;25225;-68
2020/12/13 00:41:30;;;;;;;79.73;44.60;;;;;;;-0.06;94.31;99078.48;1720902;82;25271;-69
2020/12/13 00:43:57;;;;;;;80.00;44.73;;;;;;;-0.07;94.33;99075.06;1720923;83;25283;-68
2020/12/13 00:46:24;;;;;;;74.30;43.83;;;;;;;-0.07;94.40;99080.23;1721049;83;25641;-68
2020/12/13 00:48:51;;;;;;;76.73;44.03;;;;;;;-0.07;94.39;99078.94;1721053;82;25215;-68
2020/12/13 00:51:24;;;;;;;68.87;38.80;;;;;;;-0.05;94.48;99086.17;1720774;82;25306;-68
2020/12/13 00:54:29;;;;;;;73.37;41.63;;;;;;;-0.02;94.41;99087.34;1868778;75;32250;-67
2020/12/13 00:56:56;;;;;;;79.83;45.47;;;;;;;-0.08;94.44;99090.17;1854074;76;25275;-67
2020/12/13 00:59:24;;;;;;;71.97;40.77;;;;;;;-0.08;94.46;99092.76;1843611;76;25147;-67
2020/12/13 01:01:50;;;;;;;75.50;41.40;;;;;;;-0.06;94.54;99095.28;1834972;76;25166;-68
2020/12/13 01:04:17;;;;;;;87.27;46.63;;;;;;;-0.07;94.49;99087.98;1859960;76;25084;-69
2020/12/13 01:06:44;;;;;;;77.93;43.20;;;;;;;-0.06;94.58;99090.94;1864428;76;25160;-68
2020/12/13 01:09:12;;;;;;;85.97;43.30;;;;;;;-0.05;94.75;99099.09;1864399;76;25204;-69
2020/12/13 01:11:38;;;;;;;79.23;43.73;;;;;;;-0.03;94.74;99097.28;1860263;76;25705;-67
2020/12/13 01:14:05;;;;;;;77.40;44.43;;;;;;;-0.01;94.61;99101.09;1864376;76;25109;-66
2020/12/13 01:16:32;;;;;;;77.20;43.87;;;;;;;-0.05;94.59;99101.68;1853093;76;25158;-67
2020/12/13 01:19:00;;;;;;;81.37;44.23;;;;;;;-0.04;94.75;99099.92;1848230;76;25152;-67
2020/12/13 01:21:28;;;;;;;88.50;42.67;;;;;;;-0.06;94.70;99099.98;1810228;76;25775;-67
2020/12/13 01:23:55;;;;;;;69.87;38.47;;;;;;;-0.06;94.74;99103.87;1837827;76;25245;-69
2020/12/13 01:26:24;;;;;;;83.40;45.37;;;;;;;-0.05;94.69;99100.82;1806541;76;25220;-66
2020/12/13 01:28:52;;;;;;;73.93;41.23;;;;;;;-0.08;94.63;99100.98;1833366;76;25667;-67
2020/12/13 01:31:21;;;;;;;76.37;41.53;;;;;;;-0.06;94.70;99109.04;1850567;76;25198;-67
2020/12/13 01:33:48;;;;;;;78.40;43.90;;;;;;;-0.09;94.61;99105.28;1839725;76;25123;-67
2020/12/13 01:36:18;;;;;;;92.40;46.47;;;;;;;-0.08;94.65;99110.86;1834894;76;25608;-68
2020/12/13 01:38:44;;;;;;;90.80;43.77;;;;;;;-0.06;94.59;99104.33;1850472;76;25135;-67
2020/12/13 01:41:11;;;;;;;80.70;41.93;;;;;;;-0.04;94.59;99108.97;1851056;76;25655;-67
2020/12/13 01:43:38;;;;;;;80.40;44.37;;;;;;;-0.04;94.50;99113.69;1859396;76;25021;-68
2020/12/13 01:46:05;;;;;;;83.47;45.40;;;;;;;-0.06;94.37;99118.09;1848183;76;25875;-67
2020/12/13 01:48:32;;;;;;;77.20;44.33;;;;;;;-0.06;94.40;99114.20;1837441;76;25278;-67
2020/12/13 01:51:17;;;;;;;76.33;44.00;;;;;;;-0.03;94.46;99117.13;1856764;75;25381;-67
2020/12/13 01:53:39;;;;;;;79.80;46.37;;;;;;;-0.02;94.48;99120.95;1869184;74;25283;-67
2020/12/13 01:56:06;;;;;;;85.27;46.07;;;;;;;0.02;94.47;99119.50;1898089;75;25060;-67
2020/12/13 01:58:37;;;;;;;84.17;45.43;;;;;;;0.06;94.58;99126.23;1887934;75;25143;-67
2020/12/13 02:01:08;;;;;;;82.20;46.53;;;;;;;0.09;94.57;99118.36;1840614;75;25251;-68
2020/12/13 02:03:52;;;;;;;68.50;41.80;;;;;;;0.15;94.65;99124.11;1871587;75;25212;-67
2020/12/13 02:06:24;;;;;;;81.43;46.07;;;;;;;0.20;94.67;99127.77;1875614;75;25263;-67
2020/12/13 02:08:50;;;;;;;82.30;46.63;;;;;;;0.17;94.52;99131.80;1879330;75;25247;-67
2020/12/13 02:13:55;;;;;;;81.10;46.03;;;;;;;0.25;94.59;99132.31;1818352;78;26926;-67
2020/12/13 02:16:21;;;;;;;84.93;47.33;;;;;;;0.21;94.54;99132.04;1789497;79;25401;-67
2020/12/13 02:18:48;;;;;;;80.33;44.03;;;;;;;0.25;94.58;99130.16;1789627;79;25293;-67
2020/12/13 02:21:14;;;;;;;80.17;46.40;;;;;;;0.28;94.54;99130.86;1789261;80;25284;-67
2020/12/13 02:23:41;;;;;;;81.70;46.00;;;;;;;0.27;94.41;99138.25;1789532;80;25701;-67
2020/12/13 02:26:09;;;;;;;75.77;43.27;;;;;;;0.30;94.40;99135.54;1789509;80;25272;-67
2020/12/13 02:28:36;;;;;;;77.47;43.50;;;;;;;0.32;94.40;99132.89;1789587;80;25209;-68
2020/12/13 02:31:04;;;;;;;76.77;45.23;;;;;;;0.33;94.39;99132.80;1789384;80;25636;-66
2020/12/13 02:33:31;;;;;;;75.60;43.27;;;;;;;0.34;94.40;99131.90;1789335;80;25277;-68
2020/12/13 02:36:01;;;;;;;71.47;41.97;;;;;;;0.34;94.39;99133.19;1789474;79;25317;-67
2020/12/13 02:38:28;;;;;;;71.47;42.40;;;;;;;0.37;94.46;99133.53;1789319;80;25304;-68
2020/12/13 02:40:55;;;;;;;71.93;43.20;;;;;;;0.39;94.43;99135.59;1789459;80;25269;-67
2020/12/13 02:43:21;;;;;;;77.70;45.70;;;;;;;0.42;94.39;99125.54;1789358;79;25297;-67
2020/12/13 02:45:48;;;;;;;74.97;43.07;;;;;;;0.44;94.42;99134.93;1789496;79;25312;-67
2020/12/13 02:48:15;;;;;;;75.30;45.57;;;;;;;0.48;94.39;99140.80;1789384;79;25708;-68
2020/12/13 02:50:41;;;;;;;75.13;44.17;;;;;;;0.48;94.36;99131.75;1770195;79;25350;-67
2020/12/13 02:53:08;;;;;;;77.27;44.03;;;;;;;0.52;94.37;99126.38;1784055;79;25276;-67
2020/12/13 02:55:34;;;;;;;76.07;45.53;;;;;;;0.54;94.31;99127.61;1784280;79;25353;-67
2020/12/13 02:58:01;;;;;;;74.00;43.93;;;;;;;0.58;94.37;99127.01;1784117;79;25712;-66
2020/12/13 03:00:28;;;;;;;76.73;45.43;;;;;;;0.64;94.38;99130.63;1784254;79;25344;-67
2020/12/13 03:02:54;;;;;;;75.53;44.43;;;;;;;0.69;94.40;99132.09;1784034;80;25561;-67
2020/12/13 03:05:21;;;;;;;73.30;43.73;;;;;;;0.76;94.35;99134.41;1784219;79;25217;-68
2020/12/13 03:07:48;;;;;;;71.17;40.47;;;;;;;0.80;94.33;99134.64;1784076;79;25735;-67
2020/12/13 03:10:15;;;;;;;75.07;43.80;;;;;;;0.82;94.17;99139.29;1784030;79;25712;-67
2020/12/13 03:12:44;;;;;;;75.23;45.13;;;;;;;0.83;94.09;99139.22;1784171;80;25186;-67
2020/12/13 03:15:11;;;;;;;72.40;42.87;;;;;;;0.82;94.05;99136.70;1784729;80;25265;-68
2020/12/13 03:17:37;;;;;;;75.47;44.60;;;;;;;0.83;94.06;99137.93;1784600;80;25328;-67
2020/12/13 03:20:04;;;;;;;64.63;37.73;;;;;;;0.83;93.96;99142.27;1784589;80;25127;-67
2020/12/13 03:22:31;;;;;;;69.97;41.40;;;;;;;0.85;93.96;99142.58;1784611;80;25356;-68
2020/12/13 03:24:58;;;;;;;72.03;41.00;;;;;;;0.83;93.89;99148.75;1784122;80;25614;-67
2020/12/13 03:27:25;;;;;;;70.27;41.83;;;;;;;0.81;93.83;99138.92;1784029;80;25209;-67
2020/12/13 03:29:52;;;;;;;64.53;36.97;;;;;;;0.78;93.74;99145.06;1784181;80;25696;-67
2020/12/13 03:32:19;;;;;;;71.13;40.10;;;;;;;0.74;93.70;99145.66;1784082;80;25170;-67
2020/12/13 03:34:46;;;;;;;72.93;41.93;;;;;;;0.70;93.62;99138.95;1783997;80;25266;-67
2020/12/13 03:37:12;;;;;;;68.83;41.17;;;;;;;0.64;93.54;99144.86;1784169;80;25646;-67
2020/12/13 03:39:39;;;;;;;68.93;41.63;;;;;;;0.61;93.58;99147.58;1784114;80;25281;-67
2020/12/13 03:42:06;;;;;;;71.87;41.60;;;;;;;0.58;93.49;99154.19;1784090;80;25277;-68
2020/12/13 03:44:32;;;;;;;77.63;43.07;;;;;;;0.59;93.55;99158.43;1784183;80;25191;-68
2020/12/13 03:46:59;;;;;;;66.37;40.67;;;;;;;0.62;93.57;99164.34;1784028;80;25134;-67
2020/12/13 03:49:26;;;;;;;69.40;41.90;;;;;;;0.66;93.50;99166.33;1784119;80;25216;-66
2020/12/13 03:51:52;;;;;;;68.83;40.70;;;;;;;0.69;93.42;99168.79;1784009;80;25286;-67
2020/12/13 03:54:19;;;;;;;71.13;41.40;;;;;;;0.72;93.24;99175.97;1784115;80;25708;-66
2020/12/13 03:56:46;;;;;;;71.60;42.63;;;;;;;0.73;92.96;99178.09;1784134;80;25134;-67
2020/12/13 03:59:12;;;;;;;72.33;42.07;;;;;;;0.77;92.97;99171.02;1784017;80;25227;-68
2020/12/13 04:01:39;;;;;;;66.57;39.93;;;;;;;0.74;92.70;99178.02;1783988;80;25711;-67
2020/12/13 04:04:05;;;;;;;67.93;40.43;;;;;;;0.66;92.43;99178.81;1784010;80;25225;-67
2020/12/13 04:06:32;;;;;;;73.03;40.57;;;;;;;0.58;92.21;99178.77;1784001;80;25601;-67
2020/12/13 04:08:59;;;;;;;68.83;41.30;;;;;;;0.53;92.21;99180.25;1784005;80;25304;-67
2020/12/13 04:11:26;;;;;;;67.57;40.20;;;;;;;0.47;92.13;99179.22;1784057;80;25289;-67
2020/12/13 04:13:52;;;;;;;68.30;41.17;;;;;;;0.41;92.07;99175.63;1783550;79;25632;-67
2020/12/13 04:16:19;;;;;;;70.70;40.20;;;;;;;0.34;92.02;99175.88;1783588;79;25297;-67
2020/12/13 04:18:46;;;;;;;71.57;42.10;;;;;;;0.30;92.07;99178.66;1783665;79;25254;-67
2020/12/13 04:21:12;;;;;;;69.03;40.17;;;;;;;0.21;92.04;99182.48;1783546;80;25222;-67
2020/12/13 04:23:39;;;;;;;75.20;42.77;;;;;;;0.16;92.22;99184.42;1783413;79;25296;-66
2020/12/13 04:26:06;;;;;;;70.80;41.40;;;;;;;0.18;92.37;99187.77;1783467;79;25632;-67
2020/12/13 04:28:32;;;;;;;69.17;41.97;;;;;;;0.21;92.42;99191.53;1783470;80;25253;-67
2020/12/13 04:31:00;;;;;;;68.50;41.03;;;;;;;0.21;92.40;99190.70;1783554;79;25280;-67
2020/12/13 04:33:27;;;;;;;70.27;41.80;;;;;;;0.17;92.33;99199.05;1783561;80;25127;-67
2020/12/13 04:35:53;;;;;;;71.13;41.07;;;;;;;0.16;92.32;99192.17;1783436;79;25653;-67
2020/12/13 04:38:20;;;;;;;68.67;40.97;;;;;;;0.18;92.36;99200.27;1783377;79;25281;-66
2020/12/13 04:40:47;;;;;;;69.83;40.70;;;;;;;0.20;92.33;99203.23;1783445;80;25795;-67
2020/12/13 04:43:13;;;;;;;66.23;41.03;;;;;;;0.17;92.23;99201.16;1757292;80;25265;-67
2020/12/13 04:45:40;;;;;;;69.13;42.23;;;;;;;0.15;92.17;99201.69;1783458;79;25913;-67
2020/12/13 04:48:08;;;;;;;65.27;42.10;;;;;;;0.13;92.11;99197.47;1783502;79;25296;-66
2020/12/13 04:50:38;;;;;;;74.93;41.93;;;;;;;0.05;91.90;99195.22;1783423;80;25352;-66
2020/12/13 04:53:07;;;;;;;76.33;43.03;;;;;;;-0.05;91.84;99190.88;1783281;79;25194;-67
2020/12/13 04:55:53;;;;;;;73.13;42.20;;;;;;;-0.10;91.83;99197.98;1783595;79;25217;-67
2020/12/13 04:58:22;;;;;;;73.90;42.13;;;;;;;-0.14;91.91;99196.41;1783519;80;25254;-67
2020/12/13 05:01:03;;;;;;;73.90;42.23;;;;;;;-0.18;91.92;99196.16;1783471;79;25712;-67
2020/12/13 05:03:30;;;;;;;78.67;43.73;;;;;;;-0.23;91.96;99202.80;1783555;80;25222;-67
2020/12/13 05:06:01;;;;;;;82.63;45.43;;;;;;;-0.29;92.06;99201.73;1783584;80;25206;-67
2020/12/13 05:08:28;;;;;;;77.57;44.30;;;;;;;-0.30;92.11;99206.97;1783512;80;25276;-67
2020/12/13 05:10:56;;;;;;;81.33;43.47;;;;;;;-0.34;92.22;99210.59;1783615;79;25289;-66
2020/12/13 05:13:23;;;;;;;75.63;43.10;;;;;;;-0.35;92.30;99209.75;1783306;79;25626;-66
2020/12/13 05:15:49;;;;;;;79.07;43.20;;;;;;;-0.36;92.35;99213.23;1783427;79;25280;-67
2020/12/13 05:18:16;;;;;;;73.40;40.87;;;;;;;-0.39;92.45;99215.50;1783409;80;25317;-67
2020/12/13 05:20:46;;;;;;;68.30;38.73;;;;;;;-0.35;92.56;99215.35;1783528;80;25225;-67
2020/12/13 05:23:13;;;;;;;68.33;39.20;;;;;;;-0.38;92.58;99213.29;1783323;80;25214;-68
2020/12/13 05:25:40;;;;;;;66.53;37.57;;;;;;;-0.39;92.59;99216.80;1783480;80;25340;-67
2020/12/13 05:28:11;;;;;;;66.60;36.23;;;;;;;-0.40;92.69;99219.44;1783519;80;25092;-67
2020/12/13 05:36:05;;;;;;;67.17;35.80;;;;;;;-0.50;93.03;99228.41;1819980;77;25351;-68
2020/12/13 05:38:39;;;;;;;66.70;36.40;;;;;;;-0.50;93.07;99238.75;1819737;78;25689;-66
2020/12/13 05:41:09;;;;;;;58.60;33.40;;;;;;;-0.52;93.13;99236.25;1819933;77;25200;-66
2020/12/13 05:49:21;;;;;;;64.17;34.77;;;;;;;-0.59;93.30;99239.95;1819979;77;25705;-68
2020/12/13 05:51:40;;;;;;;61.37;35.13;;;;;;;-0.60;93.37;99240.41;1791739;78;25272;-67
2020/12/13 05:54:18;;;;;;;61.97;31.70;;;;;;;-0.60;93.42;99244.75;1787518;79;25253;-66
2020/12/13 05:56:39;;;;;;;59.03;33.20;;;;;;;-0.62;93.61;99245.23;1786113;79;25277;-66
2020/12/13 05:59:06;;;;;;;62.03;34.30;;;;;;;-0.63;93.71;99243.56;1787530;79;25325;-67
2020/12/13 06:01:33;;;;;;;59.00;34.47;;;;;;;-0.63;93.73;99238.39;1787637;80;25231;-67
2020/12/13 06:04:00;;;;;;;60.03;34.53;;;;;;;-0.64;93.74;99242.70;1787453;80;25629;-66
2020/12/13 06:06:26;;;;;;;56.80;32.50;;;;;;;-0.64;93.76;99244.45;1787512;79;25229;-68
2020/12/13 06:09:08;;;;;;;60.60;33.37;;;;;;;-0.64;93.75;99254.33;1787478;80;25676;-67
2020/12/13 06:11:43;;;;;;;60.40;32.97;;;;;;;-0.64;93.78;99255.61;1787457;80;25051;-67
2020/12/13 06:14:20;;;;;;;55.53;30.73;;;;;;;-0.64;93.85;99262.08;1783572;79;25224;-67
2020/12/13 06:16:48;;;;;;;59.73;36.23;;;;;;;-0.64;93.97;99263.83;1787567;79;25243;-69
2020/12/13 06:19:18;;;;;;;64.03;37.33;;;;;;;-0.66;94.01;99266.46;1787468;79;25273;-66
2020/12/13 06:21:46;;;;;;;62.13;35.63;;;;;;;-0.66;94.03;99264.34;1787502;80;25741;-67
2020/12/13 06:24:13;;;;;;;57.40;31.73;;;;;;;-0.67;94.17;99267.38;1787431;79;25241;-67
2020/12/13 06:26:40;;;;;;;62.17;35.23;;;;;;;-0.65;94.30;99269.91;1787350;80;25724;-66
2020/12/13 06:29:06;;;;;;;51.70;29.60;;;;;;;-0.66;94.25;99268.21;1787552;79;25214;-68
2020/12/13 06:31:35;;;;;;;59.93;35.30;;;;;;;-0.65;94.39;99267.33;1787398;80;25064;-67
2020/12/13 06:34:02;;;;;;;62.17;35.00;;;;;;;-0.63;94.39;99275.84;1787432;79;25194;-68
2020/12/13 06:36:32;;;;;;;58.27;31.80;;;;;;;-0.62;94.36;99278.38;1787504;79;25324;-67
2020/12/13 06:38:59;;;;;;;58.33;33.53;;;;;;;-0.62;94.40;99284.84;1787557;79;25751;-67
2020/12/13 06:41:28;;;;;;;59.53;32.93;;;;;;;-0.64;94.36;99286.61;1756704;80;25186;-67
2020/12/13 06:44:05;;;;;;;61.57;33.40;;;;;;;-0.66;94.35;99290.16;1787459;79;25285;-67
2020/12/13 06:46:32;;;;;;;63.90;34.43;;;;;;;-0.65;94.41;99293.98;1787136;79;25277;-67
2020/12/13 06:48:59;;;;;;;59.73;34.30;;;;;;;-0.63;94.41;99301.68;1787498;79;25150;-67
2020/12/13 06:51:32;;;;;;;60.20;33.10;;;;;;;-0.61;94.46;99304.58;1787450;78;25285;-67
2020/12/13 06:53:59;;;;;;;57.47;33.07;;;;;;;-0.61;94.46;99303.75;1756844;80;25278;-67
2020/12/13 06:56:28;;;;;;;61.13;36.10;;;;;;;-0.61;94.48;99303.75;1787131;80;25266;-67
2020/12/13 06:59:06;;;;;;;60.73;33.93;;;;;;;-0.60;94.48;99313.20;1759202;80;25293;-67
2020/12/13 07:01:37;;;;;;;60.47;35.00;;;;;;;-0.59;94.54;99313.14;1786916;79;26394;-68
2020/12/13 07:07:21;;;;;;;64.40;35.83;;;;;;;-0.48;94.54;99315.77;1812069;77;26887;-68
2020/12/13 07:09:48;;;;;;;63.33;36.30;;;;;;;-0.52;94.49;99322.80;1782112;79;25691;-67
2020/12/13 07:12:18;;;;;;;70.83;38.80;;;;;;;-0.51;94.53;99321.88;1783284;79;25310;-67
2020/12/13 07:17:22;;;;;;;70.27;40.07;;;;;;;-0.42;94.53;99324.14;1817132;77;26949;-69
2020/12/13 07:19:49;;;;;;;68.90;38.97;;;;;;;-0.43;94.51;99329.36;1788223;79;25188;-66
2020/12/13 07:22:16;;;;;;;64.70;37.40;;;;;;;-0.41;94.45;99340.02;1788288;79;25261;-66
2020/12/13 07:24:46;;;;;;;65.50;36.33;;;;;;;-0.38;94.41;99341.66;1788300;79;25585;-68
2020/12/13 07:27:13;;;;;;;64.80;38.40;;;;;;;-0.37;94.30;99345.91;1787282;79;25062;-68
2020/12/13 07:29:39;;;;;;;64.73;36.67;;;;;;;-0.34;94.27;99354.01;1788375;79;25252;-68
2020/12/13 07:32:06;;;;;;;73.70;41.93;;;;;;;-0.28;94.36;99360.25;1788318;79;25672;-67
2020/12/13 07:34:33;;;;;;;70.87;41.40;;;;;;;-0.24;94.28;99356.64;1788420;80;25280;-68
2020/12/13 07:37:00;;;;;;;80.03;43.83;;;;;;;-0.21;94.19;99356.53;1788363;79;25232;-69
2020/12/13 07:39:29;;;;;;;77.07;45.03;;;;;;;-0.22;94.11;99355.70;1788261;79;25300;-68
2020/12/13 07:41:55;;;;;;;77.97;45.27;;;;;;;-0.20;94.12;99362.11;1788316;80;25284;-67
2020/12/13 07:44:24;;;;;;;75.07;45.07;;;;;;;-0.19;94.16;99365.06;1758282;80;25102;-68
2020/12/13 07:46:51;;;;;;;77.20;45.27;;;;;;;-0.19;94.19;99364.60;1788445;80;25180;-69
2020/12/13 07:49:20;;;;;;;73.77;42.67;;;;;;;-0.15;94.26;99365.36;1788266;80;25240;-68
2020/12/13 07:51:49;;;;;;;77.57;44.07;;;;;;;-0.10;94.31;99376.80;1761385;80;25621;-69
2020/12/13 07:54:21;;;;;;;77.50;43.90;;;;;;;-0.07;94.30;99374.09;1757161;80;25715;-67
2020/12/13 07:56:52;;;;;;;79.53;43.93;;;;;;;-0.02;94.33;99382.09;1757169;81;25275;-67
2020/12/13 07:59:21;;;;;;;74.83;43.23;;;;;;;0.02;94.37;99377.64;1757254;80;25170;-66
2020/12/13 08:01:54;;;;;;;71.37;42.40;;;;;;;0.05;94.33;99377.95;1757060;80;25295;-67
2020/12/13 08:04:36;;;;;;;74.13;41.53;;;;;;;0.11;94.37;99377.73;1757236;81;25175;-66
2020/12/13 08:07:10;;;;;;;69.07;39.67;;;;;;;0.16;94.40;99382.27;1757169;80;25096;-66
2020/12/13 08:09:41;;;;;;;69.07;40.47;;;;;;;0.21;94.39;99382.93;1757246;80;25293;-66
2020/12/13 08:12:07;;;;;;;66.93;39.43;;;;;;;0.24;94.40;99387.98;1757160;81;25246;-67
2020/12/13 08:14:34;;;;;;;65.17;40.13;;;;;;;0.30;94.50;99383.87;1757091;80;25078;-68
2020/12/13 08:17:00;;;;;;;71.87;41.47;;;;;;;0.38;94.59;99385.31;1759176;80;25707;-68
2020/12/13 08:19:42;;;;;;;71.00;41.50;;;;;;;0.45;94.57;99394.51;1760148;80;25286;-67
2020/12/13 08:22:13;;;;;;;69.27;42.03;;;;;;;0.51;94.60;99397.69;1760152;80;25278;-67
2020/12/13 08:24:40;;;;;;;70.50;41.50;;;;;;;0.63;94.71;99396.81;1760090;80;25669;-68
2020/12/13 08:27:07;;;;;;;67.67;40.60;;;;;;;0.77;94.79;99406.60;1732128;81;25199;-68
2020/12/13 08:29:35;;;;;;;68.50;40.00;;;;;;;0.87;94.73;99406.61;1759494;80;25706;-68
2020/12/13 08:32:12;;;;;;;65.07;39.13;;;;;;;0.98;94.76;99408.31;1759728;80;25065;-68
2020/12/13 08:34:39;;;;;;;73.33;44.47;;;;;;;1.11;94.81;99408.19;1759494;80;25120;-68
2020/12/13 08:37:06;;;;;;;73.97;44.37;;;;;;;1.25;94.91;99404.17;1759565;81;25076;-67
2020/12/13 08:39:37;;;;;;;63.23;40.40;;;;;;;1.34;94.90;99406.37;1759380;80;25294;-67
2020/12/13 08:42:05;;;;;;;59.83;36.73;;;;;;;1.47;94.93;99409.26;1759537;81;25631;-68
2020/12/13 08:44:37;;;;;;;69.70;40.50;;;;;;;1.55;94.85;99418.01;1759559;80;25219;-69
2020/12/13 08:47:07;;;;;;;68.70;38.73;;;;;;;1.63;94.79;99421.11;1759533;81;25669;-68
2020/12/13 08:49:42;;;;;;;64.53;38.03;;;;;;;1.71;94.76;99422.05;1759159;81;25285;-68
2020/12/13 08:52:16;;;;;;;79.23;45.27;;;;;;;1.80;94.71;99424.24;1759447;80;25852;-69
2020/12/13 08:54:50;;;;;;;143.57;77.93;;;;;;;1.84;94.55;99421.89;1758850;80;25262;-69
2020/12/13 09:00:16;;;;;;;70.13;41.50;;;;;;;1.98;94.26;99430.36;1849752;75;26795;-66
2020/12/13 09:03:02;;;;;;;63.93;38.07;;;;;;;1.98;94.42;99438.14;1819579;77;25252;-67
2020/12/13 09:05:30;;;;;;;62.00;36.60;;;;;;;1.99;94.22;99432.86;1788161;78;25349;-67
2020/12/13 09:07:58;;;;;;;64.30;38.70;;;;;;;2.03;94.24;99429.70;1819769;78;25401;-68
2020/12/13 09:10:27;;;;;;;64.70;37.80;;;;;;;2.07;94.28;99429.93;1819863;78;25315;-68
2020/12/13 09:12:54;;;;;;;65.23;38.90;;;;;;;2.14;94.28;99437.80;1819773;77;25179;-68
2020/12/13 09:15:23;;;;;;;62.37;37.27;;;;;;;2.20;94.29;99436.23;1819823;77;25309;-69
2020/12/13 09:17:57;;;;;;;61.13;36.70;;;;;;;2.35;94.43;99444.23;1819708;77;25231;-67
2020/12/13 09:20:30;;;;;;;67.37;40.67;;;;;;;2.46;94.21;99440.66;1819859;77;25184;-67
2020/12/13 09:23:08;;;;;;;63.83;37.80;;;;;;;2.48;93.90;99441.45;1819835;78;25733;-69
2020/12/13 09:25:44;;;;;;;57.87;34.47;;;;;;;2.51;93.76;99438.68;1819803;77;25286;-66
2020/12/13 09:28:14;;;;;;;59.27;34.30;;;;;;;2.55;93.77;99441.53;1818574;77;25202;-66
2020/12/13 09:30:42;;;;;;;65.67;37.67;;;;;;;2.54;93.50;99437.25;1819748;78;25212;-67
2020/12/13 09:33:09;;;;;;;62.87;36.27;;;;;;;2.55;93.63;99450.63;1819723;77;25211;-67
2020/12/13 09:35:36;;;;;;;65.77;39.87;;;;;;;2.55;93.48;99444.59;1819743;77;25191;-68
2020/12/13 09:38:05;;;;;;;74.30;43.03;;;;;;;2.55;93.33;99448.03;1819678;78;25235;-68
2020/12/13 09:40:32;;;;;;;78.23;43.80;;;;;;;2.59;93.56;99452.61;1819746;78;25221;-69
2020/12/13 09:42:59;;;;;;;74.00;44.43;;;;;;;2.63;93.41;99450.70;1819664;77;25278;-68
2020/12/13 09:45:26;;;;;;;69.97;42.83;;;;;;;2.69;93.45;99454.32;1819669;77;25760;-69
2020/12/13 09:47:55;;;;;;;69.97;41.70;;;;;;;2.75;93.55;99455.33;1819843;78;25195;-68
2020/12/13 09:50:26;;;;;;;68.07;41.27;;;;;;;2.85;93.60;99454.41;1788742;78;25180;-68
2020/12/13 09:52:53;;;;;;;79.83;46.73;;;;;;;2.94;93.41;99449.61;1819776;77;25212;-67
2020/12/13 09:55:21;;;;;;;73.53;45.43;;;;;;;3.00;93.24;99450.22;1819789;77;25259;-68
2020/12/13 09:57:50;;;;;;;73.13;44.00;;;;;;;3.01;92.99;99444.95;1819710;77;25268;-68
2020/12/13 10:00:17;;;;;;;74.87;44.73;;;;;;;3.00;92.53;99446.33;1819890;77;25192;-68
2020/12/13 10:02:44;;;;;;;76.57;45.60;;;;;;;2.99;92.57;99450.69;1819722;77;25625;-68
2020/12/13 10:10:41;;;;;;;74.63;45.13;;;;;;;3.07;92.87;99452.92;1819212;77;25242;-67
2020/12/13 10:13:08;;;;;;;95.33;53.67;;;;;;;3.10;92.30;99457.94;1786836;78;25258;-67
2020/12/13 10:15:35;;;;;;;131.77;73.50;;;;;;;3.11;92.37;99453.97;1819165;77;25619;-67
2020/12/13 10:18:01;;;;;;;102.97;60.50;;;;;;;3.15;92.24;99462.45;1819099;78;25699;-67
2020/12/13 10:20:29;;;;;;;79.83;48.73;;;;;;;3.19;92.43;99452.30;1819232;78;25757;-68
2020/12/13 10:22:56;;;;;;;81.83;50.37;;;;;;;3.25;92.23;99457.64;1819082;78;25215;-67
2020/12/13 10:25:22;;;;;;;83.40;51.93;;;;;;;3.26;92.10;99451.53;1819160;78;25295;-68
2020/12/13 10:27:49;;;;;;;81.33;49.40;;;;;;;3.27;92.03;99454.06;1819175;78;25267;-67
2020/12/13 10:30:17;;;;;;;75.47;46.03;;;;;;;3.30;91.81;99450.02;1819082;77;25392;-68
2020/12/13 10:32:44;;;;;;;73.37;44.70;;;;;;;3.33;91.86;99450.30;1819120;77;25271;-68
2020/12/13 10:35:11;;;;;;;74.87;45.33;;;;;;;3.40;91.78;99452.96;1819129;78;25269;-68
2020/12/13 10:37:38;;;;;;;89.80;50.97;;;;;;;3.43;91.44;99450.68;1818975;77;25722;-69
2020/12/13 10:40:08;;;;;;;73.27;43.90;;;;;;;3.46;91.36;99450.06;1818992;78;25642;-68
2020/12/13 10:42:35;;;;;;;73.60;43.57;;;;;;;3.48;91.29;99441.71;1819088;77;25053;-68
2020/12/13 10:45:12;;;;;;;81.87;47.40;;;;;;;3.56;90.77;99432.70;1811488;78;26955;-68
2020/12/13 10:47:40;;;;;;;68.60;42.13;;;;;;;3.56;91.07;99428.33;1797256;79;25209;-68
2020/12/13 10:50:06;;;;;;;94.03;55.33;;;;;;;3.59;91.02;99435.98;1796937;79;25794;-67
2020/12/13 10:52:33;;;;;;;78.57;48.03;;;;;;;3.58;90.69;99427.78;1795245;79;25646;-67
2020/12/13 10:55:00;;;;;;;89.93;50.80;;;;;;;3.62;90.75;99431.06;1795425;79;25269;-67
2020/12/13 10:57:28;;;;;;;81.77;49.00;;;;;;;3.63;90.62;99425.78;1795344;79;25293;-68
2020/12/13 10:59:54;;;;;;;82.27;48.53;;;;;;;3.69;90.60;99427.23;1795420;79;25333;-67
2020/12/13 11:02:21;;;;;;;71.93;43.67;;;;;;;3.71;90.63;99423.62;1795365;79;25636;-68
2020/12/13 11:04:48;;;;;;;72.00;43.73;;;;;;;3.77;90.58;99430.28;1795244;79;25703;-68
2020/12/13 11:07:14;;;;;;;75.93;45.33;;;;;;;3.76;90.17;99434.27;1795372;79;25334;-67
2020/12/13 11:09:41;;;;;;;76.53;48.50;;;;;;;3.81;90.25;99437.46;1795363;79;25206;-67
2020/12/13 11:12:10;;;;;;;79.33;48.17;;;;;;;3.92;90.63;99446.81;1795347;79;25599;-67
2020/12/13 11:14:37;;;;;;;82.80;50.17;;;;;;;3.99;90.08;99445.59;1795433;79;25395;-68
2020/12/13 11:17:03;;;;;;;85.93;52.97;;;;;;;4.01;89.97;99446.34;1795161;79;25146;-68
2020/12/13 11:19:31;;;;;;;71.03;43.97;;;;;;;4.01;89.42;99443.73;1795450;79;25131;-68
2020/12/13 11:21:59;;;;;;;64.80;40.43;;;;;;;4.07;89.85;99447.33;1795215;79;25304;-69
2020/12/13 11:24:26;;;;;;;60.33;37.17;;;;;;;4.16;89.70;99437.34;1795280;79;25261;-68
2020/12/13 11:26:52;;;;;;;65.27;40.43;;;;;;;4.17;89.47;99440.30;1795222;79;25292;-69
2020/12/13 11:29:22;;;;;;;62.97;38.23;;;;;;;4.20;89.42;99438.84;1795418;79;25209;-68
2020/12/13 11:31:52;;;;;;;79.93;47.67;;;;;;;4.22;89.14;99440.89;1795298;79;25324;-67
2020/12/13 11:34:19;;;;;;;77.10;48.67;;;;;;;4.24;88.90;99443.80;1795333;79;25221;-68
2020/12/13 11:36:47;;;;;;;76.23;47.57;;;;;;;4.20;88.82;99444.05;1795402;79;25220;-68
2020/12/13 11:39:16;;;;;;;71.57;43.97;;;;;;;4.19;88.75;99448.42;1795273;79;25284;-68
2020/12/13 11:41:43;;;;;;;75.70;45.10;;;;;;;4.23;88.72;99447.80;1795350;79;25383;-68
2020/12/13 11:44:11;;;;;;;69.80;41.67;;;;;;;4.21;88.60;99447.05;1790965;80;25190;-67
2020/12/13 11:46:39;;;;;;;72.17;45.83;;;;;;;4.30;88.70;99450.43;1787052;80;25269;-68
2020/12/13 11:49:06;;;;;;;63.40;39.47;;;;;;;4.34;88.62;99447.19;1753086;80;25218;-68
2020/12/13 11:51:35;;;;;;;65.63;40.23;;;;;;;4.33;88.31;99454.17;1786870;79;25269;-67
2020/12/13 11:54:02;;;;;;;68.93;42.57;;;;;;;4.30;88.21;99458.24;1786665;80;25296;-68
2020/12/13 11:56:29;;;;;;;69.23;46.83;;;;;;;4.34;88.40;99459.77;1786295;80;25272;-68